createdAt,value
2018-04-08T00:00:44.511Z,68
2018-04-08T00:01:47.239Z,68
2018-04-08T00:02:49.658Z,68
2018-04-08T00:03:52.094Z,68
2018-04-08T00:04:54.539Z,69
2018-04-08T00:05:57.267Z,69
2018-04-08T00:06:59.706Z,69
2018-04-08T00:08:02.143Z,69
2018-04-08T00:09:04.582Z,70
2018-04-08T00:10:07.308Z,70
2018-04-08T00:11:10.128Z,70
2018-04-08T00:12:12.582Z,70
2018-04-08T00:13:15.014Z,71
2018-04-08T00:14:17.437Z,71
2018-04-08T00:15:19.873Z,71
2018-04-08T00:16:22.299Z,71
2018-04-08T00:17:24.742Z,71
2018-04-08T00:18:27.181Z,71
2018-04-08T00:19:29.914Z,71
2018-04-08T00:20:32.363Z,72
2018-04-08T00:21:34.807Z,72
2018-04-08T00:22:37.518Z,72
2018-04-08T00:23:39.954Z,72
2018-04-08T00:24:42.382Z,72
2018-04-08T00:25:44.820Z,73
2018-04-08T00:26:47.265Z,73
2018-04-08T00:27:49.715Z,73
2018-04-08T00:28:52.139Z,73
2018-04-08T00:29:54.576Z,73
2018-04-08T00:30:57.015Z,73
2018-04-08T00:31:59.450Z,74
2018-04-08T00:33:02.276Z,74
2018-04-08T00:34:04.987Z,74
2018-04-08T00:35:07.423Z,74
2018-04-08T00:36:10.268Z,75
2018-04-08T00:37:12.715Z,75
2018-04-08T00:38:15.523Z,75
2018-04-08T00:39:17.968Z,76
2018-04-08T00:40:20.403Z,76
2018-04-08T00:41:22.847Z,76
2018-04-08T00:42:25.271Z,76
2018-04-08T00:43:27.716Z,76
2018-04-08T00:44:30.140Z,77
2018-04-08T00:45:32.579Z,77
2018-04-08T00:46:35.018Z,77
2018-04-08T00:47:37.456Z,77
2018-04-08T00:48:40.191Z,77
2018-04-08T00:49:42.922Z,77
2018-04-08T00:50:45.631Z,78
2018-04-08T00:51:48.065Z,78
2018-04-08T00:52:50.500Z,78
2018-04-08T00:53:53.232Z,78
2018-04-08T00:54:55.671Z,78
2018-04-08T00:55:58.107Z,79
2018-04-08T00:57:00.544Z,79
2018-04-08T00:58:04.040Z,79
2018-04-08T00:59:06.469Z,79
2018-04-08T01:00:09.619Z,79
2018-04-08T01:01:12.043Z,80
2018-04-08T01:02:14.768Z,80
2018-04-08T01:03:17.205Z,80
2018-04-08T01:04:19.641Z,80
2018-04-08T01:05:22.087Z,80
2018-04-08T01:06:24.525Z,80
2018-04-08T01:07:27.267Z,80
2018-04-08T01:08:29.984Z,80
2018-04-08T01:09:32.427Z,80
2018-04-08T01:10:34.860Z,80
2018-04-08T01:11:37.569Z,80
2018-04-08T01:12:40.015Z,80
2018-04-08T01:13:42.452Z,80
2018-04-08T01:14:44.881Z,81
2018-04-08T01:15:47.321Z,80
2018-04-08T01:16:49.759Z,81
2018-04-08T01:17:52.192Z,81
2018-04-08T01:18:54.925Z,81
2018-04-08T01:19:57.347Z,81
2018-04-08T01:20:59.780Z,81
2018-04-08T01:22:02.647Z,82
2018-04-08T01:23:05.082Z,82
2018-04-08T01:24:07.538Z,82
2018-04-08T01:25:10.541Z,82
2018-04-08T01:26:12.981Z,82
2018-04-08T01:27:15.401Z,83
2018-04-08T01:28:17.835Z,83
2018-04-08T01:29:20.265Z,83
2018-04-08T01:30:22.700Z,83
2018-04-08T01:31:25.517Z,83
2018-04-08T01:32:27.955Z,83
2018-04-08T01:33:30.388Z,84
2018-04-08T01:34:32.824Z,84
2018-04-08T01:35:35.839Z,84
2018-04-08T01:36:38.260Z,84
2018-04-08T01:37:41.292Z,84
2018-04-08T01:38:43.727Z,84
2018-04-08T01:39:46.156Z,85
2018-04-08T01:40:48.600Z,85
2018-04-08T01:41:51.424Z,85
2018-04-08T01:42:53.850Z,85
2018-04-08T01:43:56.302Z,86
2018-04-08T01:44:58.724Z,86
2018-04-08T01:46:01.160Z,86
2018-04-08T01:47:03.594Z,86
2018-04-08T01:48:06.034Z,86
2018-04-08T01:49:08.463Z,86
2018-04-08T01:50:10.908Z,86
2018-04-08T01:51:13.335Z,87
2018-04-08T01:52:15.777Z,87
2018-04-08T01:53:18.217Z,87
2018-04-08T01:54:20.940Z,87
2018-04-08T01:55:23.370Z,87
2018-04-08T01:56:25.806Z,88
2018-04-08T01:57:28.230Z,88
2018-04-08T01:58:30.675Z,88
2018-04-08T01:59:33.099Z,88
2018-04-08T02:00:35.537Z,88
2018-04-08T02:01:38.260Z,88
2018-04-08T02:02:40.694Z,89
2018-04-08T02:03:43.129Z,89
2018-04-08T02:04:45.562Z,89
2018-04-08T02:05:47.991Z,90
2018-04-08T02:06:50.709Z,89
2018-04-08T02:07:53.433Z,90
2018-04-08T02:08:55.867Z,90
2018-04-08T02:09:58.313Z,90
2018-04-08T02:11:01.033Z,90
2018-04-08T02:12:03.775Z,90
2018-04-08T02:13:06.212Z,90
2018-04-08T02:14:08.645Z,90
2018-04-08T02:15:11.079Z,90
2018-04-08T02:16:13.509Z,91
2018-04-08T02:17:15.930Z,91
2018-04-08T02:18:18.378Z,91
2018-04-08T02:19:20.813Z,91
2018-04-08T02:20:23.242Z,92
2018-04-08T02:21:26.263Z,92
2018-04-08T02:22:28.993Z,92
2018-04-08T02:23:31.756Z,92
2018-04-08T02:24:34.193Z,92
2018-04-08T02:25:36.621Z,93
2018-04-08T02:26:39.052Z,93
2018-04-08T02:27:41.486Z,93
2018-04-08T02:28:43.919Z,93
2018-04-08T02:29:46.354Z,93
2018-04-08T02:30:48.782Z,94
2018-04-08T02:31:51.210Z,94
2018-04-08T02:32:53.956Z,94
2018-04-08T02:33:56.681Z,94
2018-04-08T02:34:59.110Z,94
2018-04-08T02:36:01.840Z,95
2018-04-08T02:37:04.856Z,95
2018-04-08T02:38:07.290Z,95
2018-04-08T02:39:09.720Z,95
2018-04-08T02:40:12.150Z,95
2018-04-08T02:41:14.585Z,95
2018-04-08T02:42:17.890Z,95
2018-04-08T02:43:20.709Z,95
2018-04-08T02:44:23.142Z,96
2018-04-08T02:45:25.569Z,96
2018-04-08T02:46:28.016Z,96
2018-04-08T02:47:30.725Z,96
2018-04-08T02:48:33.769Z,96
2018-04-08T02:49:36.213Z,96
2018-04-08T02:50:38.635Z,97
2018-04-08T02:51:41.069Z,97
2018-04-08T02:52:43.886Z,97
2018-04-08T02:53:46.626Z,97
2018-04-08T02:54:49.455Z,97
2018-04-08T02:55:51.884Z,97
2018-04-08T02:56:54.302Z,98
2018-04-08T02:57:56.743Z,98
2018-04-08T02:58:59.175Z,98
2018-04-08T03:00:01.601Z,98
2018-04-08T03:01:04.040Z,98
2018-04-08T03:02:06.466Z,98
2018-04-08T03:03:08.899Z,99
2018-04-08T03:04:11.342Z,99
2018-04-08T03:05:13.764Z,99
2018-04-08T03:06:16.512Z,99
2018-04-08T03:07:18.947Z,99
2018-04-08T03:08:21.678Z,99
2018-04-08T03:09:24.113Z,100
2018-04-08T03:10:26.844Z,100
2018-04-08T03:11:29.900Z,100
2018-04-08T03:12:32.312Z,100
2018-04-08T03:13:34.751Z,100
2018-04-08T03:14:37.183Z,100
2018-04-08T03:15:39.612Z,100
2018-04-08T03:16:42.043Z,100
2018-04-08T03:17:44.477Z,100
2018-04-08T03:18:46.917Z,100
2018-04-08T03:19:49.352Z,100
2018-04-08T03:20:51.789Z,100
2018-04-08T03:21:54.609Z,100
2018-04-08T03:22:57.063Z,100
2018-04-08T03:23:59.496Z,100
2018-04-08T03:25:01.919Z,100
2018-04-08T03:26:04.642Z,100
2018-04-08T03:27:07.085Z,100
2018-04-08T03:28:09.518Z,100
2018-04-08T03:29:11.951Z,100
2018-04-08T03:30:14.680Z,100
2018-04-08T03:31:17.117Z,100
2018-04-08T03:32:19.561Z,100
2018-04-08T03:33:22.100Z,100
2018-04-08T03:34:24.528Z,100
2018-04-08T03:35:26.960Z,100
2018-04-08T03:36:29.397Z,100
2018-04-08T03:37:31.827Z,100
2018-04-08T03:38:34.295Z,100
2018-04-08T03:39:36.696Z,100
2018-04-08T03:40:39.124Z,100
2018-04-08T03:41:41.553Z,100
2018-04-08T03:42:43.997Z,100
2018-04-08T03:43:46.429Z,100
2018-04-08T03:44:48.855Z,100
2018-04-08T03:45:51.295Z,100
2018-04-08T03:46:54.002Z,100
2018-04-08T03:47:56.440Z,100
2018-04-08T03:48:58.876Z,100
2018-04-08T03:50:01.301Z,100
2018-04-08T03:51:03.747Z,100
2018-04-08T03:52:06.179Z,100
2018-04-08T03:53:08.615Z,100
2018-04-08T03:54:11.042Z,100
2018-04-08T03:55:13.474Z,100
2018-04-08T03:56:16.279Z,100
2018-04-08T03:57:18.725Z,100
2018-04-08T03:58:21.148Z,100
2018-04-08T03:59:23.589Z,100
2018-04-08T04:00:26.022Z,100
2018-04-08T04:01:28.460Z,100
2018-04-08T04:02:31.465Z,100
2018-04-08T04:03:33.897Z,100
2018-04-08T04:04:36.335Z,100
2018-04-08T04:05:38.756Z,100
2018-04-08T04:06:41.187Z,100
2018-04-08T04:07:43.625Z,100
2018-04-08T04:08:46.050Z,100
2018-04-08T04:09:48.478Z,100
2018-04-08T04:10:51.228Z,100
2018-04-08T04:11:53.935Z,100
2018-04-08T04:12:56.381Z,100
2018-04-08T04:13:58.818Z,100
2018-04-08T04:15:01.248Z,100
2018-04-08T04:16:03.676Z,100
2018-04-08T04:17:06.109Z,100
2018-04-08T04:18:08.534Z,100
2018-04-08T04:19:11.253Z,100
2018-04-08T04:20:13.684Z,100
2018-04-08T04:21:16.402Z,100
2018-04-08T04:22:18.851Z,100
2018-04-08T04:23:21.272Z,100
2018-04-08T04:24:23.704Z,100
2018-04-08T04:25:26.694Z,100
2018-04-08T04:26:29.136Z,100
2018-04-08T04:27:31.578Z,100
2018-04-08T04:28:34.017Z,100
2018-04-08T04:29:36.440Z,100
2018-04-08T04:30:38.880Z,100
2018-04-08T04:31:41.315Z,100
2018-04-08T04:32:43.748Z,100
2018-04-08T04:33:46.171Z,100
2018-04-08T04:34:48.601Z,100
2018-04-08T04:35:51.038Z,100
2018-04-08T04:36:53.462Z,100
2018-04-08T04:37:55.889Z,100
2018-04-08T04:38:58.327Z,100
2018-04-08T04:40:00.756Z,100
2018-04-08T04:41:03.243Z,100
2018-04-08T04:42:05.676Z,100
2018-04-08T04:43:08.109Z,100
2018-04-08T04:44:10.553Z,100
2018-04-08T04:45:12.985Z,100
2018-04-08T04:46:15.408Z,100
2018-04-08T04:47:18.221Z,100
2018-04-08T04:48:20.959Z,100
2018-04-08T04:49:23.383Z,100
2018-04-08T04:50:26.204Z,100
2018-04-08T04:51:28.949Z,100
2018-04-08T04:52:31.663Z,100
2018-04-08T04:53:34.102Z,100
2018-04-08T04:54:36.532Z,100
2018-04-08T04:55:38.972Z,100
2018-04-08T04:56:41.693Z,100
2018-04-08T04:57:44.121Z,100
2018-04-08T04:58:46.550Z,100
2018-04-08T04:59:48.990Z,100
2018-04-08T05:00:51.414Z,100
2018-04-08T05:01:53.846Z,100
2018-04-08T05:02:56.271Z,100
2018-04-08T05:03:58.699Z,100
2018-04-08T05:05:01.137Z,100
2018-04-08T05:06:03.574Z,100
2018-04-08T05:07:06.576Z,100
2018-04-08T05:08:09.017Z,100
2018-04-08T05:09:11.737Z,100
2018-04-08T05:10:14.155Z,100
2018-04-08T05:11:16.604Z,100
2018-04-08T05:12:19.032Z,100
2018-04-08T05:13:21.749Z,100
2018-04-08T05:14:24.183Z,100
2018-04-08T05:15:26.610Z,100
2018-04-08T05:16:29.035Z,100
2018-04-08T05:17:31.476Z,100
2018-04-08T05:18:33.895Z,100
2018-04-08T05:19:36.331Z,100
2018-04-08T05:20:38.748Z,100
2018-04-08T05:21:41.470Z,100
2018-04-08T05:22:44.211Z,100
2018-04-08T05:23:46.961Z,100
2018-04-08T05:24:49.393Z,100
2018-04-08T05:25:51.834Z,100
2018-04-08T05:26:54.550Z,100
2018-04-08T05:27:57.284Z,100
2018-04-08T05:28:59.714Z,100
2018-04-08T05:30:02.148Z,100
2018-04-08T05:31:04.904Z,100
2018-04-08T05:32:07.333Z,100
2018-04-08T05:33:09.815Z,100
2018-04-08T05:34:12.269Z,100
2018-04-08T05:35:14.974Z,100
2018-04-08T05:36:17.421Z,100
2018-04-08T05:37:19.860Z,100
2018-04-08T05:38:22.285Z,100
2018-04-08T05:39:24.724Z,100
2018-04-08T05:40:27.150Z,100
2018-04-08T05:41:29.580Z,100
2018-04-08T05:42:32.010Z,100
2018-04-08T05:43:34.814Z,100
2018-04-08T05:44:37.239Z,100
2018-04-08T05:45:39.683Z,100
2018-04-08T05:46:42.401Z,100
2018-04-08T05:47:44.830Z,100
2018-04-08T05:48:47.262Z,100
2018-04-08T05:49:49.688Z,100
2018-04-08T05:50:52.128Z,100
2018-04-08T05:51:54.564Z,100
2018-04-08T05:52:56.988Z,100
2018-04-08T05:53:59.424Z,100
2018-04-08T05:55:01.875Z,100
2018-04-08T05:56:04.694Z,100
2018-04-08T05:57:07.120Z,100
2018-04-08T05:58:09.561Z,100
2018-04-08T05:59:12.285Z,100
2018-04-08T06:00:14.713Z,100
2018-04-08T06:01:17.151Z,100
2018-04-08T06:02:19.566Z,100
2018-04-08T06:03:22.004Z,100
2018-04-08T06:04:24.438Z,100
2018-04-08T06:05:26.875Z,100
2018-04-08T06:06:29.316Z,100
2018-04-08T06:07:31.763Z,100
2018-04-08T06:08:34.192Z,100
2018-04-08T06:09:36.619Z,100
2018-04-08T06:10:39.055Z,100
2018-04-08T06:11:41.484Z,100
2018-04-08T06:12:43.912Z,100
2018-04-08T06:13:46.347Z,100
2018-04-08T06:14:48.781Z,100
2018-04-08T06:15:51.220Z,100
2018-04-08T06:16:53.657Z,100
2018-04-08T06:17:56.375Z,100
2018-04-08T06:18:58.822Z,100
2018-04-08T06:20:01.550Z,100
2018-04-08T06:21:04.260Z,100
2018-04-08T06:22:06.689Z,100
2018-04-08T06:23:09.421Z,100
2018-04-08T06:24:11.847Z,100
2018-04-08T06:25:14.281Z,100
2018-04-08T06:26:16.707Z,100
2018-04-08T06:27:19.145Z,100
2018-04-08T06:28:21.866Z,100
2018-04-08T06:29:24.302Z,100
2018-04-08T06:30:26.737Z,100
2018-04-08T06:31:29.171Z,100
2018-04-08T06:32:32.008Z,100
2018-04-08T06:33:34.425Z,100
2018-04-08T06:34:36.866Z,100
2018-04-08T06:35:39.305Z,100
2018-04-08T06:36:41.732Z,100
2018-04-08T06:37:44.166Z,100
2018-04-08T06:38:46.891Z,100
2018-04-08T06:39:49.322Z,100
2018-04-08T06:40:52.081Z,100
2018-04-08T06:41:54.512Z,100
2018-04-08T06:42:56.938Z,99
2018-04-08T06:43:59.384Z,100
2018-04-08T06:45:01.820Z,100
2018-04-08T06:46:04.834Z,99
2018-04-08T06:47:07.271Z,99
2018-04-08T06:48:09.995Z,99
2018-04-08T06:49:12.437Z,98
2018-04-08T06:50:14.874Z,98
2018-04-08T06:51:17.687Z,98
2018-04-08T06:52:20.412Z,97
2018-04-08T06:53:22.840Z,97
2018-04-08T06:54:25.293Z,97
2018-04-08T06:55:27.705Z,96
2018-04-08T06:56:30.139Z,97
2018-04-08T06:57:32.861Z,97
2018-04-08T06:58:35.298Z,97
2018-04-08T06:59:37.739Z,96
2018-04-08T07:00:40.188Z,96
2018-04-08T07:01:42.899Z,96
2018-04-08T07:02:45.619Z,95
2018-04-08T07:03:48.058Z,96
2018-04-08T07:04:50.495Z,95
2018-04-08T07:07:27.205Z,95
2018-04-08T07:08:36.191Z,95
2018-04-08T07:10:16.988Z,94
2018-04-08T07:11:19.430Z,94
2018-04-08T07:12:21.854Z,94
2018-04-08T07:13:24.302Z,93
2018-04-08T07:14:27.032Z,94
2018-04-08T07:15:29.461Z,93
2018-04-08T07:16:31.899Z,93
2018-04-08T07:17:34.650Z,93
2018-04-08T07:18:37.108Z,93
2018-04-08T07:19:39.510Z,92
2018-04-08T07:20:41.946Z,92
2018-04-08T07:21:44.685Z,92
2018-04-08T07:22:47.418Z,92
2018-04-08T07:23:50.250Z,92
2018-04-08T07:24:52.688Z,91
2018-04-08T07:25:55.127Z,91
2018-04-08T07:26:57.552Z,91
2018-04-08T07:28:00.005Z,90
2018-04-08T07:29:02.440Z,90
2018-04-08T07:30:04.870Z,91
2018-04-08T07:31:07.594Z,91
2018-04-08T07:32:10.029Z,90
2018-04-08T07:33:12.860Z,90
2018-04-08T07:34:15.297Z,90
2018-04-08T07:35:17.729Z,89
2018-04-08T07:36:20.165Z,89
2018-04-08T07:37:22.977Z,88
2018-04-08T07:38:25.417Z,88
2018-04-08T07:39:27.855Z,88
2018-04-08T07:40:30.683Z,88
2018-04-08T07:41:33.399Z,87
2018-04-08T07:42:35.845Z,86
2018-04-08T07:43:38.855Z,86
2018-04-08T07:44:41.295Z,86
2018-04-08T07:45:43.728Z,86
2018-04-08T07:46:46.454Z,86
2018-04-08T07:47:48.887Z,85
2018-04-08T07:48:51.330Z,85
2018-04-08T07:49:53.817Z,86
2018-04-08T07:50:56.520Z,85
2018-04-08T07:51:58.948Z,84
2018-04-08T07:53:01.399Z,84
2018-04-08T07:54:04.118Z,84
2018-04-08T07:55:06.550Z,84
2018-04-08T07:56:08.986Z,83
2018-04-08T07:57:11.425Z,82
2018-04-08T07:58:13.862Z,81
2018-04-08T07:59:16.303Z,79
2018-04-08T08:00:19.119Z,77
2018-04-08T08:01:21.938Z,78
2018-04-08T08:02:24.660Z,78
2018-04-08T08:03:27.111Z,78
2018-04-08T08:04:29.933Z,77
2018-04-08T08:05:32.364Z,76
2018-04-08T08:06:34.807Z,76
2018-04-08T08:07:37.237Z,76
2018-04-08T08:08:39.684Z,75
2018-04-08T08:09:42.121Z,75
2018-04-08T08:10:44.572Z,75
2018-04-08T08:11:46.997Z,74
2018-04-08T08:12:49.445Z,73
2018-04-08T08:13:51.883Z,72
2018-04-08T08:14:54.318Z,72
2018-04-08T08:15:56.755Z,71
2018-04-08T08:16:59.191Z,71
2018-04-08T08:18:01.628Z,72
2018-04-08T08:19:04.077Z,71
2018-04-08T08:20:06.513Z,71
2018-04-08T08:21:09.234Z,71
2018-04-08T08:22:11.668Z,71
2018-04-08T08:23:14.099Z,70
2018-04-08T08:24:16.536Z,69
2018-04-08T08:25:18.985Z,69
2018-04-08T08:26:21.408Z,68
2018-04-08T08:27:23.857Z,68
2018-04-08T08:28:26.300Z,68
2018-04-08T08:29:28.742Z,67
2018-04-08T08:30:31.182Z,68
2018-04-08T08:31:33.621Z,68
2018-04-08T08:32:37.010Z,66
2018-04-08T08:33:39.461Z,65
2018-04-08T08:34:41.907Z,64
2018-04-08T08:35:44.351Z,64
2018-04-08T08:36:46.778Z,64
2018-04-08T08:37:49.217Z,64
2018-04-08T08:38:51.671Z,64
2018-04-08T08:39:54.404Z,64
2018-04-08T08:40:56.848Z,64
2018-04-08T08:41:59.281Z,65
2018-04-08T08:43:01.718Z,64
2018-04-08T08:44:04.175Z,64
2018-04-08T08:45:06.610Z,65
2018-04-08T08:46:09.046Z,64
2018-04-08T08:47:11.488Z,62
2018-04-08T08:48:13.937Z,62
2018-04-08T08:49:16.379Z,62
2018-04-08T08:50:19.122Z,62
2018-04-08T08:51:21.865Z,62
2018-04-08T08:52:24.352Z,61
2018-04-08T08:53:26.811Z,61
2018-04-08T08:54:29.253Z,61
2018-04-08T08:55:31.690Z,62
2018-04-08T08:56:34.525Z,61
2018-04-08T08:57:36.965Z,61
2018-04-08T08:58:39.422Z,61
2018-04-08T08:59:42.256Z,60
2018-04-08T09:00:44.752Z,60
2018-04-08T09:01:47.198Z,60
2018-04-08T09:02:49.744Z,60
2018-04-08T09:03:52.188Z,62
2018-04-08T09:04:54.666Z,59
2018-04-08T09:05:57.855Z,60
2018-04-08T09:07:00.799Z,60
2018-04-08T09:08:03.502Z,60
2018-04-08T09:09:05.945Z,60
2018-04-08T09:10:08.805Z,61
2018-04-08T09:11:11.286Z,59
2018-04-08T09:12:13.839Z,60
2018-04-08T09:13:16.353Z,60
2018-04-08T09:14:18.945Z,59
2018-04-08T09:15:21.428Z,59
2018-04-08T09:16:23.900Z,58
2018-04-08T09:17:26.367Z,58
2018-04-08T09:18:29.118Z,59
2018-04-08T09:19:32.900Z,58
2018-04-08T09:20:35.485Z,58
2018-04-08T09:21:38.202Z,57
2018-04-08T09:22:40.730Z,56
2018-04-08T09:23:44.018Z,57
2018-04-08T09:24:46.540Z,56
2018-04-08T09:25:49.060Z,57
2018-04-08T09:26:51.548Z,57
2018-04-08T09:27:54.323Z,57
2018-04-08T09:28:56.777Z,57
2018-04-08T09:29:59.467Z,57
2018-04-08T09:31:02.210Z,56
2018-04-08T09:32:05.946Z,56
2018-04-08T09:33:08.412Z,56
2018-04-08T09:34:10.848Z,56
2018-04-08T09:35:13.300Z,56
2018-04-08T09:36:15.830Z,56
2018-04-08T09:37:18.197Z,57
2018-04-08T09:38:20.650Z,58
2018-04-08T09:39:23.101Z,57
2018-04-08T09:40:25.543Z,57
2018-04-08T09:41:27.998Z,57
2018-04-08T09:42:30.448Z,57
2018-04-08T09:43:32.880Z,56
2018-04-08T09:44:35.338Z,56
2018-04-08T09:45:37.833Z,55
2018-04-08T09:46:40.251Z,55
2018-04-08T09:47:42.998Z,54
2018-04-08T09:48:45.442Z,55
2018-04-08T09:49:47.887Z,55
2018-04-08T09:50:50.350Z,54
2018-04-08T09:51:53.082Z,55
2018-04-08T09:52:55.528Z,55
2018-04-08T09:53:58.293Z,54
2018-04-08T09:55:00.771Z,53
2018-04-08T09:56:03.562Z,53
2018-04-08T09:57:06.298Z,53
2018-04-08T09:58:08.739Z,53
2018-04-08T09:59:11.465Z,54
2018-04-08T10:00:13.924Z,54
2018-04-08T10:01:16.374Z,54
2018-04-08T10:02:18.824Z,53
2018-04-08T10:03:21.279Z,52
2018-04-08T10:04:23.735Z,53
2018-04-08T10:05:26.210Z,52
2018-04-08T10:06:28.626Z,52
2018-04-08T10:07:31.091Z,53
2018-04-08T10:08:33.925Z,52
2018-04-08T10:09:36.365Z,52
2018-04-08T10:10:38.817Z,52
2018-04-08T10:11:41.271Z,53
2018-04-08T10:12:43.712Z,51
2018-04-08T10:13:46.755Z,50
2018-04-08T10:14:49.199Z,51
2018-04-08T10:15:51.650Z,53
2018-04-08T10:16:54.144Z,53
2018-04-08T10:17:56.590Z,52
2018-04-08T10:18:59.037Z,53
2018-04-08T10:20:01.783Z,53
2018-04-08T10:21:04.515Z,51
2018-04-08T10:22:07.261Z,50
2018-04-08T10:23:09.707Z,50
2018-04-08T10:24:12.141Z,51
2018-04-08T10:25:14.590Z,51
2018-04-08T10:26:17.043Z,52
2018-04-08T10:27:20.176Z,51
2018-04-08T10:28:23.015Z,50
2018-04-08T10:29:25.481Z,50
2018-04-08T10:30:28.266Z,50
2018-04-08T10:31:30.729Z,49
2018-04-08T10:32:33.468Z,49
2018-04-08T10:33:36.302Z,48
2018-04-08T10:34:38.754Z,48
2018-04-08T10:35:41.491Z,48
2018-04-08T10:36:43.945Z,48
2018-04-08T10:37:46.400Z,48
2018-04-08T10:38:48.860Z,49
2018-04-08T10:39:51.311Z,49
2018-04-08T10:40:53.771Z,48
2018-04-08T10:41:56.216Z,48
2018-04-08T10:42:58.668Z,47
2018-04-08T10:44:01.504Z,48
2018-04-08T10:45:03.960Z,47
2018-04-08T10:46:06.799Z,47
2018-04-08T10:47:09.248Z,47
2018-04-08T10:48:11.685Z,48
2018-04-08T10:49:14.150Z,47
2018-04-08T10:50:16.601Z,47
2018-04-08T10:51:19.347Z,46
2018-04-08T10:52:22.106Z,47
2018-04-08T10:53:24.552Z,47
2018-04-08T10:54:26.999Z,47
2018-04-08T10:55:29.462Z,48
2018-04-08T10:56:32.473Z,47
2018-04-08T10:57:35.222Z,48
2018-04-08T10:58:37.674Z,48
2018-04-08T10:59:40.132Z,47
2018-04-08T11:00:42.591Z,47
2018-04-08T11:01:45.043Z,47
2018-04-08T11:02:47.784Z,47
2018-04-08T11:03:50.237Z,47
2018-04-08T11:04:52.752Z,47
2018-04-08T11:05:55.140Z,47
2018-04-08T11:06:57.592Z,46
2018-04-08T11:08:00.045Z,46
2018-04-08T11:09:02.496Z,46
2018-04-08T11:10:04.951Z,46
2018-04-08T11:11:07.409Z,46
2018-04-08T11:12:09.851Z,46
2018-04-08T11:13:12.310Z,46
2018-04-08T11:14:14.760Z,47
2018-04-08T11:15:17.879Z,47
2018-04-08T11:16:20.327Z,47
2018-04-08T11:17:23.068Z,46
2018-04-08T11:18:25.512Z,46
2018-04-08T11:19:27.963Z,46
2018-04-08T11:20:30.797Z,44
2018-04-08T11:21:33.252Z,45
2018-04-08T11:22:35.700Z,46
2018-04-08T11:23:38.168Z,46
2018-04-08T11:24:40.610Z,46
2018-04-08T11:25:43.074Z,45
2018-04-08T11:26:45.525Z,45
2018-04-08T11:27:48.569Z,45
2018-04-08T11:28:51.016Z,45
2018-04-08T11:29:53.757Z,46
2018-04-08T11:30:56.486Z,45
2018-04-08T11:31:58.946Z,47
2018-04-08T11:33:01.406Z,47
2018-04-08T11:34:04.156Z,46
2018-04-08T11:35:06.897Z,46
2018-04-08T11:36:09.369Z,46
2018-04-08T11:37:12.203Z,46
2018-04-08T11:38:14.690Z,46
2018-04-08T11:39:17.144Z,46
2018-04-08T11:40:19.645Z,46
2018-04-08T11:41:22.098Z,46
2018-04-08T11:42:24.552Z,47
2018-04-08T11:43:27.049Z,45
2018-04-08T11:44:29.903Z,45
2018-04-08T11:45:32.354Z,45
2018-04-08T11:46:34.848Z,45
2018-04-08T11:47:37.306Z,45
2018-04-08T11:48:39.755Z,45
2018-04-08T11:49:42.227Z,44
2018-04-08T11:50:44.683Z,44
2018-04-08T11:51:47.570Z,44
2018-04-08T11:52:50.311Z,44
2018-04-08T11:53:52.772Z,44
2018-04-08T11:54:55.218Z,45
2018-04-08T11:55:57.956Z,45
2018-04-08T11:57:00.715Z,45
2018-04-08T11:58:03.158Z,46
2018-04-08T11:59:05.645Z,46
2018-04-08T12:00:08.050Z,46
2018-04-08T12:01:10.498Z,46
2018-04-08T12:03:04.265Z,45
2018-04-08T12:04:06.691Z,44
2018-04-08T12:05:09.901Z,45
2018-04-08T12:06:12.726Z,45
2018-04-08T12:07:15.632Z,43
2018-04-08T12:08:18.089Z,44
2018-04-08T12:09:21.320Z,46
2018-04-08T12:10:23.719Z,46
2018-04-08T12:11:26.186Z,45
2018-04-08T12:12:28.656Z,45
2018-04-08T12:13:31.199Z,44
2018-04-08T12:14:34.062Z,43
2018-04-08T12:15:37.556Z,43
2018-04-08T12:16:40.048Z,43
2018-04-08T12:17:42.711Z,44
2018-04-08T12:18:45.115Z,44
2018-04-08T12:19:48.048Z,44
2018-04-08T12:20:50.476Z,44
2018-04-08T12:21:53.370Z,43
2018-04-08T12:22:56.404Z,43
2018-04-08T12:23:59.162Z,43
2018-04-08T12:25:02.259Z,42
2018-04-08T12:26:05.049Z,42
2018-04-08T12:27:07.879Z,43
2018-04-08T12:28:10.296Z,43
2018-04-08T12:29:13.003Z,43
2018-04-08T12:30:15.801Z,44
2018-04-08T12:31:18.265Z,43
2018-04-08T12:32:20.622Z,45
2018-04-08T12:33:23.317Z,44
2018-04-08T12:34:25.713Z,43
2018-04-08T12:35:28.119Z,43
2018-04-08T12:36:30.508Z,43
2018-04-08T12:37:32.908Z,44
2018-04-08T12:38:35.326Z,44
2018-04-08T12:39:37.728Z,45
2018-04-08T12:40:40.135Z,44
2018-04-08T12:41:42.533Z,44
2018-04-08T12:42:44.931Z,45
2018-04-08T12:43:47.335Z,44
2018-04-08T12:44:49.743Z,44
2018-04-08T12:45:52.129Z,44
2018-04-08T12:46:54.811Z,45
2018-04-08T12:47:57.200Z,45
2018-04-08T12:48:59.590Z,44
2018-04-08T12:50:01.988Z,44
2018-04-08T12:51:04.968Z,44
2018-04-08T12:52:07.367Z,44
2018-04-08T12:53:09.775Z,45
2018-04-08T12:54:12.179Z,45
2018-04-08T12:55:14.592Z,44
2018-04-08T12:56:17.007Z,45
2018-04-08T12:57:19.444Z,44
2018-04-08T12:58:22.160Z,45
2018-04-08T12:59:24.580Z,44
2018-04-08T13:00:27.034Z,44
2018-04-08T13:01:29.415Z,44
2018-04-08T13:02:31.812Z,43
2018-04-08T13:03:34.230Z,44
2018-04-08T13:04:36.929Z,44
2018-04-08T13:05:39.337Z,43
2018-04-08T13:06:42.117Z,44
2018-04-08T13:07:44.577Z,43
2018-04-08T13:08:46.940Z,44
2018-04-08T13:09:49.355Z,44
2018-04-08T13:10:51.762Z,43
2018-04-08T13:11:54.450Z,42
2018-04-08T13:12:56.857Z,42
2018-04-08T13:13:59.575Z,43
2018-04-08T13:15:01.990Z,43
2018-04-08T13:16:04.397Z,42
2018-04-08T13:17:06.805Z,42
2018-04-08T13:18:09.199Z,42
2018-04-08T13:19:11.892Z,44
2018-04-08T13:20:14.572Z,44
2018-04-08T13:21:16.955Z,42
2018-04-08T13:22:19.370Z,42
2018-04-08T13:23:22.059Z,43
2018-04-08T13:24:24.752Z,43
2018-04-08T13:25:27.175Z,44
2018-04-08T13:26:29.576Z,44
2018-04-08T13:27:31.983Z,44
2018-04-08T13:28:34.401Z,44
2018-04-08T13:29:37.085Z,43
2018-04-08T13:30:39.486Z,43
2018-04-08T13:31:41.881Z,42
2018-04-08T13:32:44.569Z,42
2018-04-08T13:33:46.971Z,43
2018-04-08T13:34:49.387Z,43
2018-04-08T13:35:51.807Z,43
2018-04-08T13:36:54.519Z,43
2018-04-08T13:37:56.929Z,44
2018-04-08T13:38:59.624Z,44
2018-04-08T13:40:02.425Z,42
2018-04-08T13:41:05.214Z,42
2018-04-08T13:42:07.617Z,42
2018-04-08T13:43:10.029Z,42
2018-04-08T13:44:12.426Z,42
2018-04-08T13:45:14.844Z,42
2018-04-08T13:46:17.239Z,42
2018-04-08T13:47:19.651Z,42
2018-04-08T13:48:22.053Z,41
2018-04-08T13:49:24.449Z,41
2018-04-08T13:50:27.159Z,42
2018-04-08T13:51:29.569Z,43
2018-04-08T13:52:31.965Z,43
2018-04-08T13:53:34.385Z,42
2018-04-08T13:54:36.776Z,42
2018-04-08T13:55:39.177Z,42
2018-04-08T13:56:41.583Z,43
2018-04-08T13:57:43.983Z,43
2018-04-08T13:58:46.376Z,42
2018-04-08T13:59:49.066Z,43
2018-04-08T14:00:51.465Z,42
2018-04-08T14:01:53.860Z,42
2018-04-08T14:02:56.589Z,41
2018-04-08T14:03:59.266Z,41
2018-04-08T14:05:01.681Z,41
2018-04-08T14:06:04.745Z,42
2018-04-08T14:07:07.156Z,42
2018-04-08T14:08:09.933Z,42
2018-04-08T14:09:12.353Z,43
2018-04-08T14:10:14.742Z,42
2018-04-08T14:11:17.434Z,43
2018-04-08T14:12:19.837Z,43
2018-04-08T14:13:22.524Z,42
2018-04-08T14:14:24.963Z,42
2018-04-08T14:15:27.328Z,41
2018-04-08T14:16:29.735Z,41
2018-04-08T14:17:32.138Z,42
2018-04-08T14:18:34.548Z,41
2018-04-08T14:19:36.963Z,41
2018-04-08T14:20:39.663Z,42
2018-04-08T14:21:42.346Z,42
2018-04-08T14:22:44.768Z,42
2018-04-08T14:23:47.456Z,42
2018-04-08T14:24:50.134Z,42
2018-04-08T14:25:52.544Z,42
2018-04-08T14:26:54.939Z,42
2018-04-08T14:27:57.635Z,42
2018-04-08T14:29:00.328Z,42
2018-04-08T14:30:03.112Z,42
2018-04-08T14:31:05.804Z,42
2018-04-08T14:32:08.212Z,41
2018-04-08T14:33:10.886Z,41
2018-04-08T14:34:13.319Z,41
2018-04-08T14:35:16.009Z,41
2018-04-08T14:36:18.683Z,41
2018-04-08T14:37:21.083Z,41
2018-04-08T14:38:23.488Z,41
2018-04-08T14:39:25.894Z,41
2018-04-08T14:40:28.891Z,42
2018-04-08T14:41:31.305Z,41
2018-04-08T14:42:33.679Z,41
2018-04-08T14:43:36.377Z,41
2018-04-08T14:44:39.169Z,41
2018-04-08T14:45:41.851Z,42
2018-04-08T14:46:44.270Z,41
2018-04-08T14:47:46.954Z,41